Terminal Aerodrome Forecast
Issued by NWS

Home | Current Version | Previous Version | Text Only | Print | Product List | Glossary On
Versions: 1 2 3 4 5 6 7 8 9 10 11 12 13 14 15 16 17
000
FTUS43 KGRR 302300
TAFJXN
TAF
KJXN 302340Z 3100/3124 30011KT P6SM BKN200
     FM310200 28004KT 6SM -RA BKN060
     FM310900 09005KT 4SM -RA BR OVC025
     FM311200 04004KT P6SM OVC025
     FM311700 36006KT P6SM FEW035=

USA.gov is the U.S. government's official web portal to all federal, state and local government web resources and services.